createdAt,value
2022-10-25T00:01:27.536Z,99479.59
2022-10-25T00:03:54.581Z,99483.53
2022-10-25T00:06:21.756Z,99477.91
2022-10-25T00:08:48.537Z,99466.19
2022-10-25T00:11:23.718Z,99469.38
2022-10-25T00:13:51.611Z,99471.91
2022-10-25T00:16:20.846Z,99473.88
2022-10-25T00:18:47.348Z,99467.84
2022-10-25T00:21:13.813Z,99468.53
2022-10-25T00:23:40.176Z,99466.88
2022-10-25T00:26:09.017Z,99460.03
2022-10-25T00:28:35.831Z,99463.28
2022-10-25T00:31:07.510Z,99466.09
2022-10-25T00:33:35.752Z,99467.09
2022-10-25T00:36:11.679Z,99463.75
2022-10-25T00:38:38.733Z,99468.53
2022-10-25T00:41:05.922Z,99476.94
2022-10-25T00:43:35.050Z,99475.72
2022-10-25T00:46:05.635Z,99475.28
2022-10-25T00:48:32.302Z,99480.06
2022-10-25T00:50:59.003Z,99472.22
2022-10-25T00:53:29.136Z,99480.06
2022-10-25T00:56:03.364Z,99478.22
2022-10-25T00:58:33.581Z,99481.50
2022-10-25T01:01:00.625Z,99484.28
2022-10-25T01:03:27.105Z,99489.31
2022-10-25T01:05:54.014Z,99489.34
2022-10-25T01:08:21.890Z,99484.31
2022-10-25T01:10:48.675Z,99494.94
2022-10-25T01:13:15.398Z,99491.19
2022-10-25T01:16:03.264Z,99506.69
2022-10-25T01:18:45.178Z,99498.16
2022-10-25T01:21:30.294Z,99497.84
2022-10-25T01:24:09.534Z,99500.91
2022-10-25T01:26:57.486Z,99497.28
2022-10-25T01:29:47.840Z,99488.16
2022-10-25T01:32:27.164Z,99494.34
2022-10-25T01:34:58.771Z,99485.91
2022-10-25T01:38:06.524Z,99488.41
2022-10-25T01:40:42.034Z,99495.69
2022-10-25T01:43:32.970Z,99494.72
2022-10-25T01:46:28.992Z,99500.19
2022-10-25T01:49:05.684Z,99502.69
2022-10-25T01:51:36.225Z,99506.31
2022-10-25T01:54:02.768Z,99501.00
2022-10-25T01:56:34.152Z,99501.56
2022-10-25T01:59:03.421Z,99498.91
2022-10-25T02:01:50.274Z,99512.19
2022-10-25T02:04:35.081Z,99501.16
2022-10-25T02:07:19.640Z,99515.28
2022-10-25T02:10:07.039Z,99518.63
2022-10-25T02:12:45.821Z,99519.38
2022-10-25T02:15:18.252Z,99509.59
2022-10-25T02:17:51.946Z,99509.72
2022-10-25T02:20:21.877Z,99513.22
2022-10-25T02:22:49.819Z,99510.97
2022-10-25T02:25:16.654Z,99505.66
2022-10-25T02:27:45.137Z,99501.84
2022-10-25T02:30:12.201Z,99507.75
2022-10-25T02:32:38.691Z,99506.88
2022-10-25T02:35:05.710Z,99513.75
2022-10-25T02:37:32.916Z,99510.56
2022-10-25T02:39:59.788Z,99512.25
2022-10-25T02:42:26.189Z,99510.31
2022-10-25T02:44:52.564Z,99508.94
2022-10-25T02:47:18.987Z,99515.38
2022-10-25T02:49:45.378Z,99514.78
2022-10-25T02:52:11.742Z,99514.25
2022-10-25T02:54:38.133Z,99520.09
2022-10-25T02:57:04.528Z,99519.28
2022-10-25T02:59:31.100Z,99522.66
2022-10-25T03:01:57.550Z,99528.94
2022-10-25T03:04:23.914Z,99530.47
2022-10-25T03:06:50.295Z,99532.59
2022-10-25T03:09:16.699Z,99538.59
2022-10-25T03:11:43.047Z,99529.25
2022-10-25T03:14:09.454Z,99531.22
2022-10-25T03:16:35.832Z,99522.66
2022-10-25T03:19:02.469Z,99531.59
2022-10-25T03:21:28.839Z,99532.56
2022-10-25T03:23:55.264Z,99527.94
2022-10-25T03:26:21.716Z,99524.88
2022-10-25T03:28:48.085Z,99540.53
2022-10-25T03:31:16.729Z,99533.78
2022-10-25T03:33:43.819Z,99542.22
2022-10-25T03:36:10.368Z,99542.38
2022-10-25T03:38:36.843Z,99536.94
2022-10-25T03:41:03.901Z,99544.06
2022-10-25T03:43:30.347Z,99548.00
2022-10-25T03:45:56.772Z,99548.94
2022-10-25T03:48:23.131Z,99553.41
2022-10-25T03:50:49.559Z,99546.72
2022-10-25T03:53:15.987Z,99547.44
2022-10-25T03:55:42.357Z,99548.69
2022-10-25T03:58:08.796Z,99546.84
2022-10-25T04:00:35.237Z,99553.72
2022-10-25T04:03:02.850Z,99553.03
2022-10-25T04:05:30.546Z,99553.03
2022-10-25T04:07:56.971Z,99559.56
2022-10-25T04:10:25.241Z,99558.47
2022-10-25T04:12:53.507Z,99558.88
2022-10-25T04:15:20.864Z,99558.59
2022-10-25T04:17:51.371Z,99557.75
2022-10-25T04:20:18.310Z,99559.28
2022-10-25T04:22:44.954Z,99555.78
2022-10-25T04:25:11.719Z,99554.69
2022-10-25T04:27:38.101Z,99547.44
2022-10-25T04:30:04.712Z,99536.78
2022-10-25T04:32:31.059Z,99546.72
2022-10-25T04:34:57.399Z,99551.59
2022-10-25T04:37:23.800Z,99542.78
2022-10-25T04:39:50.141Z,99550.91
2022-10-25T04:42:17.526Z,99550.38
2022-10-25T04:44:43.878Z,99545.34
2022-10-25T04:47:10.516Z,99551.34
2022-10-25T04:49:36.864Z,99550.38
2022-10-25T04:52:03.353Z,99547.84
2022-10-25T04:54:29.723Z,99551.59
2022-10-25T04:56:56.073Z,99550.50
2022-10-25T04:59:22.471Z,99549.25
2022-10-25T05:01:48.952Z,99553.19
2022-10-25T05:04:15.351Z,99549.56
2022-10-25T05:06:41.694Z,99550.53
2022-10-25T05:09:08.072Z,99545.22
2022-10-25T05:11:34.498Z,99557.91
2022-10-25T05:14:00.860Z,99557.66
2022-10-25T05:16:27.305Z,99568.00
2022-10-25T05:18:55.342Z,99570.38
2022-10-25T05:24:01.399Z,99567.56
2022-10-25T05:26:30.112Z,99563.22
2022-10-25T05:28:56.983Z,99565.88
2022-10-25T05:31:26.177Z,99573.72
2022-10-25T05:33:54.272Z,99568.00
2022-10-25T05:36:20.943Z,99578.63
2022-10-25T05:38:47.583Z,99584.34
2022-10-25T05:41:15.500Z,99589.53
2022-10-25T05:43:42.711Z,99589.13
2022-10-25T05:46:14.527Z,99598.63
2022-10-25T05:48:45.752Z,99599.91
2022-10-25T05:51:33.230Z,99602.56
2022-10-25T05:54:02.732Z,99609.84
2022-10-25T05:56:30.618Z,99606.47
2022-10-25T05:58:57.255Z,99604.38
2022-10-25T06:01:25.991Z,99619.75
2022-10-25T06:03:55.125Z,99622.97
2022-10-25T06:06:22.840Z,99621.28
2022-10-25T06:08:49.455Z,99620.16
2022-10-25T06:11:18.881Z,99613.03
2022-10-25T06:13:45.476Z,99619.31
2022-10-25T06:16:18.253Z,99619.72
2022-10-25T06:18:45.109Z,99630.06
2022-10-25T06:21:23.891Z,99634.81
2022-10-25T06:23:50.459Z,99640.56
2022-10-25T06:26:28.124Z,99645.19
2022-10-25T06:28:57.226Z,99650.22
2022-10-25T06:31:24.102Z,99661.16
2022-10-25T06:33:50.922Z,99659.16
2022-10-25T06:36:22.817Z,99662.13
2022-10-25T06:38:50.205Z,99665.72
2022-10-25T06:41:20.313Z,99674.13
2022-10-25T06:43:46.910Z,99672.72
2022-10-25T06:46:24.355Z,99674.25
2022-10-25T06:48:52.663Z,99677.19
2022-10-25T06:51:19.790Z,99683.63
2022-10-25T06:53:46.287Z,99686.03
2022-10-25T06:56:14.877Z,99688.53
2022-10-25T06:58:42.212Z,99689.91
2022-10-25T07:01:12.335Z,99687.56
2022-10-25T07:03:39.134Z,99683.38
2022-10-25T07:06:07.943Z,99683.63
2022-10-25T07:08:36.016Z,99696.91
2022-10-25T07:11:03.860Z,99693.16
2022-10-25T07:13:32.499Z,99694.69
2022-10-25T07:16:06.114Z,99692.19
2022-10-25T07:18:33.933Z,99709.81
2022-10-25T07:21:05.408Z,99707.28
2022-10-25T07:23:32.545Z,99708.81
2022-10-25T07:25:59.545Z,99705.63
2022-10-25T07:28:27.207Z,99709.22
2022-10-25T07:30:53.743Z,99706.84
2022-10-25T07:33:20.257Z,99709.22
2022-10-25T07:35:59.109Z,99716.94
2022-10-25T07:38:35.400Z,99713.69
2022-10-25T07:41:01.791Z,99709.94
2022-10-25T07:43:28.929Z,99713.00
2022-10-25T07:45:55.949Z,99710.94
2022-10-25T07:48:22.823Z,99716.63
2022-10-25T07:50:49.195Z,99709.81
2022-10-25T07:53:15.589Z,99722.94
2022-10-25T07:55:41.939Z,99725.31
2022-10-25T07:58:10.770Z,99724.06
2022-10-25T08:00:37.549Z,99734.41
2022-10-25T08:03:04.205Z,99722.13
2022-10-25T08:05:30.730Z,99725.88
2022-10-25T08:07:57.100Z,99734.53
2022-10-25T08:10:23.559Z,99734.97
2022-10-25T08:12:50.659Z,99729.94
2022-10-25T08:15:17.508Z,99728.53
2022-10-25T08:17:43.990Z,99727.66
2022-10-25T08:20:10.451Z,99737.03
2022-10-25T08:22:36.941Z,99733.56
2022-10-25T08:25:05.245Z,99733.84
2022-10-25T08:27:32.421Z,99736.19
2022-10-25T08:29:58.872Z,99731.28
2022-10-25T08:32:25.241Z,99729.72
2022-10-25T08:34:51.571Z,99731.13
2022-10-25T08:37:18.014Z,99731.53
2022-10-25T08:39:44.875Z,99733.59
2022-10-25T08:42:22.651Z,99735.00
2022-10-25T08:45:00.292Z,99734.72
2022-10-25T08:47:35.599Z,99734.97
2022-10-25T08:50:06.865Z,99729.22
2022-10-25T08:52:53.271Z,99735.94
2022-10-25T08:55:27.445Z,99733.38
2022-10-25T08:57:54.856Z,99734.06
2022-10-25T09:00:23.818Z,99739.22
2022-10-25T09:03:00.102Z,99750.13
2022-10-25T09:06:06.187Z,99745.22
2022-10-25T09:08:42.664Z,99753.56
2022-10-25T09:11:39.338Z,99753.03
2022-10-25T09:14:30.918Z,99763.38
2022-10-25T09:17:09.192Z,99763.53
2022-10-25T09:19:42.024Z,99763.69
2022-10-25T09:22:16.262Z,99771.38
2022-10-25T09:24:58.707Z,99763.06
2022-10-25T09:27:38.537Z,99764.16
2022-10-25T09:30:10.856Z,99763.16
2022-10-25T09:32:45.357Z,99771.44
2022-10-25T09:35:46.081Z,99772.91
2022-10-25T09:38:22.196Z,99770.31
2022-10-25T09:41:01.025Z,99777.19
2022-10-25T09:43:35.955Z,99773.00
2022-10-25T09:46:08.272Z,99779.31
2022-10-25T09:48:48.732Z,99783.13
2022-10-25T09:51:29.657Z,99781.59
2022-10-25T09:53:57.686Z,99774.06
2022-10-25T09:56:24.070Z,99775.88
2022-10-25T09:58:50.531Z,99783.88
2022-10-25T10:01:21.536Z,99779.63
2022-10-25T10:03:52.278Z,99792.03
2022-10-25T10:06:32.433Z,99795.47
2022-10-25T10:09:12.533Z,99799.34
2022-10-25T10:11:39.538Z,99796.69
2022-10-25T10:14:21.680Z,99798.13
2022-10-25T10:16:51.889Z,99802.09
2022-10-25T10:19:21.075Z,99800.97
2022-10-25T10:21:51.074Z,99805.59
2022-10-25T10:24:30.803Z,99812.78
2022-10-25T10:27:02.602Z,99815.56
2022-10-25T10:29:31.172Z,99810.41
2022-10-25T10:32:03.148Z,99808.84
2022-10-25T10:34:57.438Z,99810.53
2022-10-25T10:37:25.694Z,99813.34
2022-10-25T10:40:00.977Z,99806.88
2022-10-25T10:42:33.937Z,99813.88
2022-10-25T10:45:09.366Z,99804.22
2022-10-25T10:47:51.017Z,99810.69
2022-10-25T10:50:24.324Z,99803.91
2022-10-25T10:52:58.369Z,99791.97
2022-10-25T10:55:35.420Z,99811.00
2022-10-25T10:58:14.502Z,99810.88
2022-10-25T11:00:50.100Z,99812.69
2022-10-25T11:03:37.773Z,99813.59
2022-10-25T11:06:34.571Z,99816.34
2022-10-25T11:09:12.156Z,99813.75
2022-10-25T11:11:42.068Z,99817.13
2022-10-25T11:14:16.071Z,99801.59
2022-10-25T11:17:09.079Z,99798.88
2022-10-25T11:19:35.455Z,99798.63
2022-10-25T11:22:11.036Z,99803.38
2022-10-25T11:25:12.657Z,99806.75
2022-10-25T11:27:51.153Z,99813.97
2022-10-25T11:30:26.588Z,99807.72
2022-10-25T11:33:30.322Z,99817.34
2022-10-25T11:36:26.957Z,99816.88
2022-10-25T11:39:43.688Z,99818.16
2022-10-25T11:42:45.155Z,99814.53
2022-10-25T11:45:20.450Z,99812.38
2022-10-25T11:48:03.382Z,99804.09
2022-10-25T11:50:49.819Z,99808.19
2022-10-25T11:53:29.138Z,99803.09
2022-10-25T11:56:04.456Z,99801.81
2022-10-25T11:58:42.670Z,99805.59
2022-10-25T12:01:36.998Z,99784.50
2022-10-25T12:04:37.097Z,99788.13
2022-10-25T12:07:15.855Z,99790.44
2022-10-25T12:10:19.622Z,99795.44
2022-10-25T12:12:58.564Z,99795.97
2022-10-25T12:15:35.271Z,99789.31
2022-10-25T12:18:03.711Z,99789.81
2022-10-25T12:20:31.174Z,99793.47
2022-10-25T12:23:01.168Z,99792.63
2022-10-25T12:25:33.742Z,99793.28
2022-10-25T12:28:10.756Z,99785.22
2022-10-25T12:30:40.379Z,99783.69
2022-10-25T12:33:06.702Z,99779.78
2022-10-25T12:35:40.316Z,99775.53
2022-10-25T12:38:15.364Z,99781.16
2022-10-25T12:40:47.601Z,99777.63
2022-10-25T12:43:32.907Z,99789.28
2022-10-25T12:46:40.279Z,99790.94
2022-10-25T12:49:18.951Z,99780.19
2022-10-25T12:52:11.528Z,99780.47
2022-10-25T12:55:18.770Z,99780.16
2022-10-25T12:58:13.684Z,99784.81
2022-10-25T13:00:58.678Z,99779.13
2022-10-25T13:04:02.717Z,99771.41
2022-10-25T13:06:50.441Z,99769.38
2022-10-25T13:09:22.185Z,99780.50
2022-10-25T13:11:59.893Z,99757.97
2022-10-25T13:14:30.888Z,99771.00
2022-10-25T13:17:20.077Z,99772.69
2022-10-25T13:19:56.040Z,99765.66
2022-10-25T13:22:35.883Z,99764.13
2022-10-25T13:25:05.248Z,99768.47
2022-10-25T13:27:33.699Z,99765.28
2022-10-25T13:30:06.297Z,99760.25
2022-10-25T13:32:43.464Z,99773.91
2022-10-25T13:35:22.456Z,99777.88
2022-10-25T13:38:05.467Z,99773.53
2022-10-25T13:40:32.271Z,99778.06
2022-10-25T13:43:20.807Z,99771.72
2022-10-25T13:45:54.464Z,99772.06
2022-10-25T13:48:29.669Z,99766.44
2022-10-25T13:51:06.527Z,99762.91
2022-10-25T13:53:32.857Z,99767.81
2022-10-25T13:56:14.109Z,99765.97
2022-10-25T13:58:42.219Z,99752.09
2022-10-25T14:01:14.728Z,99757.59
2022-10-25T14:03:49.964Z,99746.91
2022-10-25T14:06:25.275Z,99755.09
2022-10-25T14:09:24.121Z,99758.06
2022-10-25T14:11:54.435Z,99752.88
2022-10-25T14:14:32.753Z,99747.56
2022-10-25T14:17:11.236Z,99737.19
2022-10-25T14:19:42.666Z,99740.84
2022-10-25T14:22:29.057Z,99744.47
2022-10-25T14:25:02.665Z,99735.50
2022-10-25T14:27:31.781Z,99730.44
2022-10-25T14:30:26.078Z,99742.78
2022-10-25T14:33:01.460Z,99736.63
2022-10-25T14:35:33.560Z,99744.13
2022-10-25T14:38:01.369Z,99752.41
2022-10-25T14:40:30.720Z,99738.41
2022-10-25T14:43:24.950Z,99754.09
2022-10-25T14:45:58.327Z,99737.72
2022-10-25T14:48:24.826Z,99746.69
2022-10-25T14:50:52.669Z,99745.19
2022-10-25T14:53:19.593Z,99741.31
2022-10-25T14:55:53.613Z,99742.47
2022-10-25T14:58:21.752Z,99751.47
2022-10-25T15:01:01.853Z,99732.94
2022-10-25T15:03:29.774Z,99738.81
2022-10-25T15:05:59.117Z,99735.47
2022-10-25T15:08:28.229Z,99735.47
2022-10-25T15:11:03.294Z,99738.25
2022-10-25T15:13:41.755Z,99744.59
2022-10-25T15:16:49.757Z,99745.44
2022-10-25T15:19:20.341Z,99751.91
2022-10-25T15:21:51.825Z,99742.25
2022-10-25T15:24:20.905Z,99738.19
2022-10-25T15:26:59.381Z,99740.88
2022-10-25T15:32:21.260Z,99728.53
2022-10-25T15:34:53.607Z,99742.03
2022-10-25T15:37:21.869Z,99732.47
2022-10-25T15:39:50.589Z,99737.81
2022-10-25T15:42:18.056Z,99732.13
2022-10-25T15:44:44.501Z,99738.44
2022-10-25T15:47:23.327Z,99730.91
2022-10-25T15:49:53.320Z,99725.19
2022-10-25T15:52:20.161Z,99726.94
2022-10-25T15:54:46.839Z,99729.75
2022-10-25T15:57:13.198Z,99715.06
2022-10-25T15:59:39.556Z,99720.69
2022-10-25T16:02:16.795Z,99727.09
2022-10-25T16:04:43.261Z,99724.19
2022-10-25T16:07:12.391Z,99733.09
2022-10-25T16:09:38.908Z,99739.25
2022-10-25T16:12:07.938Z,99726.97
2022-10-25T16:14:36.472Z,99723.09
2022-10-25T16:17:03.128Z,99725.13
2022-10-25T16:19:31.403Z,99732.44
2022-10-25T16:21:58.603Z,99735.78
2022-10-25T16:24:25.086Z,99724.28
2022-10-25T16:26:52.614Z,99733.88
2022-10-25T16:29:25.686Z,99730.38
2022-10-25T16:31:52.765Z,99733.47
2022-10-25T16:34:19.936Z,99745.72
2022-10-25T16:36:47.643Z,99741.00
2022-10-25T16:39:14.600Z,99750.22
2022-10-25T16:41:43.256Z,99745.88
2022-10-25T16:44:12.707Z,99743.50
2022-10-25T16:46:39.822Z,99746.16
2022-10-25T16:49:06.442Z,99734.56
2022-10-25T16:51:34.621Z,99736.66
2022-10-25T16:54:01.512Z,99727.44
2022-10-25T16:56:27.948Z,99730.22
2022-10-25T16:58:54.539Z,99731.06
2022-10-25T17:01:22.244Z,99734.19
2022-10-25T17:03:50.755Z,99729.56
2022-10-25T17:06:39.699Z,99735.97
2022-10-25T17:09:04.964Z,99738.09
2022-10-25T17:11:31.286Z,99732.91
2022-10-25T17:13:57.623Z,99728.19
2022-10-25T17:16:24.028Z,99728.75
2022-10-25T17:18:50.384Z,99728.34
2022-10-25T17:21:17.544Z,99727.06
2022-10-25T17:23:44.034Z,99726.94
2022-10-25T17:26:11.543Z,99727.06
2022-10-25T17:28:42.995Z,99723.72
2022-10-25T17:31:12.759Z,99729.22
2022-10-25T17:33:39.238Z,99730.31
2022-10-25T17:36:13.967Z,99731.34
2022-10-25T17:38:41.203Z,99733.00
2022-10-25T17:41:08.323Z,99724.34
2022-10-25T17:43:35.721Z,99716.22
2022-10-25T17:46:17.906Z,99716.75
2022-10-25T17:48:44.443Z,99715.53
2022-10-25T17:51:13.227Z,99708.81
2022-10-25T17:53:39.955Z,99703.06
2022-10-25T17:56:17.724Z,99707.69
2022-10-25T17:58:46.028Z,99695.81
2022-10-25T18:01:15.084Z,99701.41
2022-10-25T18:03:41.731Z,99711.16
2022-10-25T18:06:11.108Z,99711.47
2022-10-25T18:08:38.035Z,99717.63
2022-10-25T18:11:12.748Z,99714.09
2022-10-25T18:13:41.482Z,99715.78
2022-10-25T18:16:09.306Z,99712.84
2022-10-25T18:18:35.783Z,99709.47
2022-10-25T18:21:06.671Z,99717.03
2022-10-25T18:23:33.556Z,99713.41
2022-10-25T18:25:59.933Z,99705.56
2022-10-25T18:28:26.800Z,99707.38
2022-10-25T18:31:02.288Z,99714.66
2022-10-25T18:33:33.412Z,99720.22
2022-10-25T18:36:00.534Z,99710.31
2022-10-25T18:38:27.412Z,99712.94
2022-10-25T18:40:54.504Z,99722.75
2022-10-25T18:43:21.151Z,99708.56
2022-10-25T18:45:47.585Z,99711.88
2022-10-25T18:48:13.934Z,99709.56
2022-10-25T18:50:42.556Z,99703.69
2022-10-25T18:53:09.091Z,99715.56
2022-10-25T18:55:35.450Z,99702.59
2022-10-25T18:58:01.844Z,99711.97
2022-10-25T19:00:31.095Z,99717.00
2022-10-25T19:02:57.827Z,99725.38
2022-10-25T19:05:27.837Z,99712.50
2022-10-25T19:07:54.706Z,99714.91
2022-10-25T19:10:21.252Z,99711.56
2022-10-25T19:12:47.647Z,99708.88
2022-10-25T19:15:14.807Z,99708.88
2022-10-25T19:17:41.163Z,99705.53
2022-10-25T19:20:07.780Z,99704.00
2022-10-25T19:22:34.253Z,99694.78
2022-10-25T19:25:00.665Z,99706.09
2022-10-25T19:27:28.900Z,99689.19
2022-10-25T19:29:57.484Z,99695.16
2022-10-25T19:32:23.874Z,99693.59
2022-10-25T19:37:17.488Z,99701.88
2022-10-25T19:39:44.793Z,99695.38
2022-10-25T19:42:11.461Z,99692.41
2022-10-25T19:44:37.837Z,99705.66
2022-10-25T19:47:04.219Z,99695.91
2022-10-25T19:49:30.604Z,99698.03
2022-10-25T19:51:57.154Z,99697.28
2022-10-25T19:54:23.807Z,99697.00
2022-10-25T19:56:51.079Z,99701.22
2022-10-25T19:59:17.839Z,99700.25
2022-10-25T20:01:47.355Z,99703.63
2022-10-25T20:04:14.420Z,99697.19
2022-10-25T20:06:41.264Z,99700.38
2022-10-25T20:09:07.729Z,99698.88
2022-10-25T20:11:34.118Z,99706.22
2022-10-25T20:14:02.179Z,99699.25
2022-10-25T20:16:29.762Z,99694.44
2022-10-25T20:18:56.266Z,99701.28
2022-10-25T20:21:25.080Z,99692.56
2022-10-25T20:23:56.609Z,99692.03
2022-10-25T20:26:25.796Z,99696.94
2022-10-25T20:28:54.072Z,99697.19
2022-10-25T20:31:22.885Z,99689.34
2022-10-25T20:33:50.006Z,99684.09
2022-10-25T20:36:16.429Z,99691.97
2022-10-25T20:38:42.815Z,99685.91
2022-10-25T20:41:16.873Z,99687.09
2022-10-25T20:43:47.552Z,99692.00
2022-10-25T20:46:14.381Z,99690.09
2022-10-25T20:48:40.815Z,99686.94
2022-10-25T20:51:08.079Z,99683.31
2022-10-25T20:53:35.529Z,99697.84
2022-10-25T20:56:02.036Z,99695.97
2022-10-25T20:58:28.548Z,99694.38
2022-10-25T21:00:57.286Z,99686.53
2022-10-25T21:03:25.596Z,99690.09
2022-10-25T21:05:53.604Z,99696.47
2022-10-25T21:08:22.775Z,99695.34
2022-10-25T21:11:00.347Z,99687.13
2022-10-25T21:13:29.261Z,99678.03
2022-10-25T21:15:55.909Z,99690.19
2022-10-25T21:18:26.715Z,99690.91
2022-10-25T21:20:53.533Z,99679.19
2022-10-25T21:23:19.902Z,99683.38
2022-10-25T21:25:46.245Z,99677.69
2022-10-25T21:28:12.659Z,99674.38
2022-10-25T21:30:39.056Z,99681.25
2022-10-25T21:33:05.464Z,99679.34
2022-10-25T21:35:32.423Z,99670.28
2022-10-25T21:37:58.996Z,99668.53
2022-10-25T21:40:25.733Z,99669.81
2022-10-25T21:42:52.123Z,99662.13
2022-10-25T21:45:18.504Z,99668.03
2022-10-25T21:47:44.888Z,99671.50
2022-10-25T21:50:11.315Z,99672.53
2022-10-25T21:52:37.687Z,99676.47
2022-10-25T21:55:04.375Z,99664.00
2022-10-25T21:57:30.765Z,99662.91
2022-10-25T21:59:57.110Z,99657.44
2022-10-25T22:02:23.630Z,99654.56
2022-10-25T22:04:50.166Z,99660.16
2022-10-25T22:07:16.547Z,99658.06
2022-10-25T22:09:42.884Z,99656.16
2022-10-25T22:12:09.262Z,99654.53
2022-10-25T22:14:35.649Z,99648.38
2022-10-25T22:17:02.035Z,99648.94
2022-10-25T22:19:28.475Z,99645.25
2022-10-25T22:21:54.852Z,99644.84
2022-10-25T22:24:21.339Z,99645.41
2022-10-25T22:26:50.466Z,99644.63
2022-10-25T22:29:16.933Z,99642.63
2022-10-25T22:31:43.380Z,99655.50
2022-10-25T22:34:09.949Z,99652.13
2022-10-25T22:36:38.537Z,99653.34
2022-10-25T22:39:06.649Z,99645.41
2022-10-25T22:41:33.760Z,99647.09
2022-10-25T22:44:01.005Z,99647.28
2022-10-25T22:46:30.008Z,99649.16
2022-10-25T22:48:57.811Z,99651.34
2022-10-25T22:51:25.948Z,99641.59
2022-10-25T22:53:52.881Z,99649.16
2022-10-25T22:56:24.654Z,99641.59
2022-10-25T22:58:53.316Z,99645.16
2022-10-25T23:01:29.401Z,99647.34
2022-10-25T23:03:57.254Z,99650.13
2022-10-25T23:06:26.557Z,99642.81
2022-10-25T23:08:57.517Z,99643.41
2022-10-25T23:11:32.903Z,99637.31
2022-10-25T23:14:00.625Z,99643.06
2022-10-25T23:16:28.076Z,99643.84
2022-10-25T23:18:54.544Z,99648.03
2022-10-25T23:21:23.557Z,99649.41
2022-10-25T23:23:51.675Z,99647.59
2022-10-25T23:26:32.795Z,99641.31
2022-10-25T23:29:00.275Z,99634.72
2022-10-25T23:31:27.144Z,99641.06
2022-10-25T23:33:55.887Z,99643.16
2022-10-25T23:36:26.454Z,99636.56
2022-10-25T23:38:54.387Z,99646.44
2022-10-25T23:41:21.954Z,99636.09
2022-10-25T23:43:48.780Z,99631.97
2022-10-25T23:46:15.342Z,99629.72
2022-10-25T23:48:41.887Z,99629.91
2022-10-25T23:51:10.977Z,99625.00
2022-10-25T23:53:37.959Z,99621.38
2022-10-25T23:56:06.747Z,99624.47
2022-10-25T23:58:33.088Z,99619.88
